Time;durP1;ratioP1;P1;durP2;ratioP2;P2;SDS_P1;SDS_P2;PMS_P1;PMS_P2;Temp;Humidity;BMP_temperature;BMP_pressure;BME280_temperature;BME280_humidity;BME280_pressure;Samples;Min_cycle;Max_cycle;Signal;HPM_P1;HPM_P2
2021/04/07 00:01:02;;;;;;;;;;;;;;;-142.75;63.11;78791.34;5102085;28;19912;-76
2021/04/07 00:03:27;;;;;;;;;;;;;;;-142.75;64.02;78803.16;5124979;27;19916;-76
2021/04/07 00:05:52;;;;;;;;;;;;;;;-142.75;64.23;78805.13;5104996;27;19911;-76
2021/04/07 00:08:25;;;;;;;;;;;;;;;-142.75;64.90;78809.06;5107617;27;19912;-76
2021/04/07 00:10:51;;;;;;;;;;;;;;;-142.75;64.64;78813.00;5123449;27;19912;-77
2021/04/07 00:13:16;;;;;;;;;;;;;;;-142.75;64.30;78805.13;5127767;27;19911;-76
2021/04/07 00:15:42;;;;;;;;;;;;;;;-142.75;64.08;78809.06;5108737;27;19911;-77
2021/04/07 00:18:07;;;;;;;;;;;;;;;-142.75;64.07;78801.19;5124348;27;19919;-76
2021/04/07 00:20:33;;;;;;;;;;;;;;;-142.75;63.54;78811.03;5123977;27;19914;-76
2021/04/07 00:22:58;;;;;;;;;;;;;;;-142.75;63.23;78791.34;5104713;27;19911;-76
2021/04/07 00:25:25;;;;;;;;;;;;;;;-142.75;62.83;78787.41;5124982;27;19911;-76
2021/04/07 00:27:58;;;;;;;;;;;;;;;-142.75;62.12;78779.53;5127381;27;19911;-76
2021/04/07 00:30:25;;;;;;;;;;;;;;;-142.75;62.12;78775.59;5106160;27;19911;-75
2021/04/07 00:32:50;;;;;;;;;;;;;;;-142.75;61.75;78763.78;5103517;27;19911;-76
2021/04/07 00:35:16;;;;;;;;;;;;;;;-142.75;61.65;78748.03;5104493;27;20387;-78
2021/04/07 00:37:41;;;;;;;;;;;;;;;-142.75;61.59;78744.09;5125250;27;19915;-76
2021/04/07 00:40:07;;;;;;;;;;;;;;;-142.75;61.24;78744.09;5122682;27;20419;-77
2021/04/07 00:42:32;;;;;;;;;;;;;;;-142.75;60.97;78751.97;5123926;27;19926;-77
2021/04/07 00:44:58;;;;;;;;;;;;;;;-142.75;60.73;78751.97;5124898;27;19920;-76
2021/04/07 00:47:23;;;;;;;;;;;;;;;-142.75;60.69;78755.91;5126391;27;19918;-76
2021/04/07 00:49:49;;;;;;;;;;;;;;;-142.75;60.67;78759.84;5125905;27;19912;-78
2021/04/07 00:52:14;;;;;;;;;;;;;;;-142.75;59.70;78736.19;5105064;27;19911;-76
2021/04/07 00:54:40;;;;;;;;;;;;;;;-142.75;60.53;78748.03;5117236;27;20273;-78
2021/04/07 00:57:05;;;;;;;;;;;;;;;-142.75;60.36;78751.97;5101548;28;19916;-76
2021/04/07 00:59:30;;;;;;;;;;;;;;;-142.75;60.53;78761.81;5123297;27;19969;-76
2021/04/07 01:01:56;;;;;;;;;;;;;;;-142.75;60.08;78736.19;5124060;27;19915;-76
2021/04/07 01:04:21;;;;;;;;;;;;;;;-142.75;60.43;78742.09;5122420;27;19964;-76
2021/04/07 01:06:47;;;;;;;;;;;;;;;-142.75;61.03;78750.00;5106333;27;19923;-76
2021/04/07 01:09:12;;;;;;;;;;;;;;;-142.75;60.95;78730.28;5123020;27;19919;-76
2021/04/07 01:11:37;;;;;;;;;;;;;;;-142.75;62.30;78746.03;5125655;27;19919;-77
2021/04/07 01:14:03;;;;;;;;;;;;;;;-142.75;64.38;78791.34;5124824;27;19911;-77
2021/04/07 01:16:28;;;;;;;;;;;;;;;-142.75;64.22;78799.22;5106380;27;19915;-77
2021/04/07 01:18:54;;;;;;;;;;;;;;;-142.75;64.00;78793.31;5121921;27;19911;-77
2021/04/07 01:21:19;;;;;;;;;;;;;;;-142.75;64.08;78803.16;5108810;27;19911;-76
2021/04/07 01:23:45;;;;;;;;;;;;;;;-142.75;63.98;78799.22;5125587;27;20376;-77
2021/04/07 01:26:11;;;;;;;;;;;;;;;-142.75;64.01;78799.22;5125407;27;20002;-77
2021/04/07 01:28:36;;;;;;;;;;;;;;;-142.75;63.81;78795.28;5104977;27;19946;-76
2021/04/07 01:31:02;;;;;;;;;;;;;;;-142.75;63.67;78795.28;5105207;27;19950;-76
2021/04/07 01:33:27;;;;;;;;;;;;;;;-142.75;64.08;78799.22;5105481;27;19919;-77
2021/04/07 01:35:52;;;;;;;;;;;;;;;-142.75;63.92;78797.25;5122678;27;19938;-76
2021/04/07 01:38:18;;;;;;;;;;;;;;;-142.75;63.57;78791.34;5124264;27;19935;-76
2021/04/07 01:40:44;;;;;;;;;;;;;;;-142.75;63.37;78783.47;5104466;28;19937;-76
2021/04/07 01:43:10;;;;;;;;;;;;;;;-142.75;63.73;78785.44;5104147;28;19911;-76
2021/04/07 01:45:35;;;;;;;;;;;;;;;-142.75;63.95;78779.53;5123992;27;19934;-76
2021/04/07 01:48:01;;;;;;;;;;;;;;;-142.75;63.87;78765.75;5121174;27;19918;-77
2021/04/07 01:50:27;;;;;;;;;;;;;;;-142.75;63.52;78755.91;5103971;27;19912;-77
2021/04/07 01:52:52;;;;;;;;;;;;;;;-142.75;63.70;78755.91;5121915;27;20274;-78
2021/04/07 01:55:17;;;;;;;;;;;;;;;-142.75;63.51;78753.94;5104829;28;19920;-76
2021/04/07 01:57:42;;;;;;;;;;;;;;;-142.75;63.34;78748.03;5120061;27;19916;-77
2021/04/07 02:00:11;;;;;;;;;;;;;;;-142.75;63.08;78728.31;5101897;27;20383;-78
2021/04/07 02:02:37;;;;;;;;;;;;;;;-142.75;63.23;78726.34;5123727;27;20385;-76
2021/04/07 02:05:03;;;;;;;;;;;;;;;-142.75;62.99;78732.25;5122679;27;19912;-76
2021/04/07 02:07:29;;;;;;;;;;;;;;;-142.75;63.29;78730.28;5103783;28;19911;-76
2021/04/07 02:09:54;;;;;;;;;;;;;;;-142.75;63.34;78724.38;5099540;28;19993;-75
2021/04/07 02:12:19;;;;;;;;;;;;;;;-142.75;63.08;78718.47;5123422;27;19911;-76
2021/04/07 02:14:44;;;;;;;;;;;;;;;-142.75;63.17;78728.31;5119368;27;19960;-77
2021/04/07 02:17:09;;;;;;;;;;;;;;;-142.75;62.89;78718.47;5101448;27;20183;-77
2021/04/07 02:19:35;;;;;;;;;;;;;;;-142.75;62.48;78724.38;5127531;27;19912;-77
2021/04/07 02:22:06;;;;;;;;;;;;;;;-142.75;62.18;78720.44;5122004;28;19911;-77
2021/04/07 02:24:32;;;;;;;;;;;;;;;-142.75;61.54;78704.69;5105422;28;20429;-76
2021/04/07 02:26:57;;;;;;;;;;;;;;;-142.75;59.79;78669.25;5124956;28;19919;-77
2021/04/07 02:29:22;;;;;;;;;;;;;;;-142.75;58.53;78637.72;5105232;28;19934;-77
2021/04/07 02:31:48;;;;;;;;;;;;;;;-142.75;57.91;78610.16;5105509;28;19912;-78
2021/04/07 02:34:13;;;;;;;;;;;;;;;-142.75;57.55;78590.47;5122565;28;19977;-77
2021/04/07 02:36:38;;;;;;;;;;;;;;;-142.75;57.17;78572.72;5124095;28;20296;-77
2021/04/07 02:39:04;;;;;;;;;;;;;;;-142.75;56.81;78555.00;5103364;28;19918;-77
2021/04/07 02:41:29;;;;;;;;;;;;;;;-142.75;57.48;78553.03;5104384;28;19960;-75
2021/04/07 02:43:54;;;;;;;;;;;;;;;-142.75;56.82;78547.13;5123097;28;19950;-77
2021/04/07 02:46:20;;;;;;;;;;;;;;;-142.75;57.07;78539.25;5123214;28;19911;-77
2021/04/07 02:48:45;;;;;;;;;;;;;;;-142.75;57.18;78535.31;5127561;28;20033;-78
2021/04/07 02:51:10;;;;;;;;;;;;;;;-142.75;56.57;78519.56;5106331;28;19927;-77
2021/04/07 02:53:35;;;;;;;;;;;;;;;-142.75;57.63;78511.69;5122737;28;20002;-78
2021/04/07 02:56:00;;;;;;;;;;;;;;;-142.75;58.85;78547.13;5122111;28;19935;-77
2021/04/07 02:58:26;;;;;;;;;;;;;;;-142.75;60.21;78556.97;5103953;28;19911;-78
2021/04/07 03:00:51;;;;;;;;;;;;;;;-142.75;60.84;78572.72;5107205;28;19971;-77
2021/04/07 03:03:16;;;;;;;;;;;;;;;-142.75;62.15;78596.38;5104273;28;19919;-78
2021/04/07 03:05:41;;;;;;;;;;;;;;;-142.75;63.74;78631.81;5105128;28;19912;-77
2021/04/07 03:08:06;;;;;;;;;;;;;;;-142.75;64.47;78647.56;5107980;22;19975;-78
2021/04/07 03:10:32;;;;;;;;;;;;;;;-142.75;65.09;78655.44;5060859;28;19916;-81
2021/04/07 03:12:57;;;;;;;;;;;;;;;-142.75;65.75;78677.13;5079436;28;19942;-79
2021/04/07 03:15:22;;;;;;;;;;;;;;;-142.75;66.42;78714.53;5080856;28;19913;-80
2021/04/07 03:17:48;;;;;;;;;;;;;;;-142.75;66.67;78726.34;5080142;28;20327;-81
2021/04/07 03:20:13;;;;;;;;;;;;;;;-142.75;67.29;78718.47;5078102;28;19912;-82
2021/04/07 03:22:38;;;;;;;;;;;;;;;-142.75;67.86;78736.19;5075170;28;19952;-81
2021/04/07 03:25:05;;;;;;;;;;;;;;;-142.75;67.82;78732.25;5058416;28;19961;-82
2021/04/07 03:27:30;;;;;;;;;;;;;;;-142.75;67.86;78718.47;5084898;28;20003;-81
2021/04/07 03:29:58;;;;;;;;;;;;;;;-142.75;67.77;78716.50;5088846;28;19951;-81
2021/04/07 03:32:24;;;;;;;;;;;;;;;-142.75;67.96;78728.31;5074394;28;19999;-81
2021/04/07 03:34:49;;;;;;;;;;;;;;;-142.75;68.04;78730.28;5068436;28;19916;-78
2021/04/07 03:37:14;;;;;;;;;;;;;;;-142.75;68.16;78740.13;5087222;28;19923;-80
2021/04/07 03:39:39;;;;;;;;;;;;;;;-142.75;68.37;78755.91;5080981;28;19923;-80
2021/04/07 03:42:04;;;;;;;;;;;;;;;-142.75;68.39;78751.97;5072627;28;19912;-83
2021/04/07 03:44:30;;;;;;;;;;;;;;;-142.75;68.07;78748.03;5072382;28;20019;-80
2021/04/07 03:46:55;;;;;;;;;;;;;;;-142.75;67.92;78744.09;5065595;28;19947;-80
2021/04/07 03:49:20;;;;;;;;;;;;;;;-142.75;68.03;78736.19;5099056;28;19912;-80
2021/04/07 03:51:46;;;;;;;;;;;;;;;-142.75;67.99;78740.13;5092031;28;19994;-80
2021/04/07 03:54:11;;;;;;;;;;;;;;;-142.75;68.03;78736.19;5088793;28;19912;-81
2021/04/07 03:56:37;;;;;;;;;;;;;;;-142.75;68.15;78730.28;5088834;28;20278;-81
2021/04/07 03:59:02;;;;;;;;;;;;;;;-142.75;68.30;78742.09;5069558;28;20367;-81
2021/04/07 04:01:27;;;;;;;;;;;;;;;-142.75;68.41;78734.22;5070793;28;20014;-82
2021/04/07 04:03:52;;;;;;;;;;;;;;;-142.75;68.40;78742.09;5093163;28;19931;-80
2021/04/07 04:06:17;;;;;;;;;;;;;;;-142.75;68.64;78746.03;5070450;28;19916;-81
2021/04/07 04:08:43;;;;;;;;;;;;;;;-142.75;68.66;78748.03;5089705;28;20005;-80
2021/04/07 04:11:08;;;;;;;;;;;;;;;-142.75;68.72;78750.00;5076428;28;20416;-81
2021/04/07 04:13:33;;;;;;;;;;;;;;;-142.75;68.90;78744.09;5094753;28;20382;-80
2021/04/07 04:15:58;;;;;;;;;;;;;;;-142.75;68.86;78744.09;5092978;28;19916;-81
2021/04/07 04:18:23;;;;;;;;;;;;;;;-142.75;68.63;78732.25;5076047;28;19913;-80
2021/04/07 04:20:49;;;;;;;;;;;;;;;-142.75;68.43;78722.41;5072443;28;19916;-81
2021/04/07 04:23:14;;;;;;;;;;;;;;;-142.75;68.54;78720.44;5070062;28;20409;-80
2021/04/07 04:25:39;;;;;;;;;;;;;;;-142.75;68.71;78712.56;5065073;28;19912;-82
2021/04/07 04:28:04;;;;;;;;;;;;;;;-142.75;69.00;78706.66;5070575;28;19913;-81
2021/04/07 04:30:29;;;;;;;;;;;;;;;-142.75;69.08;78716.50;5086304;28;19970;-81
2021/04/07 04:32:55;;;;;;;;;;;;;;;-142.75;68.99;78726.34;5067910;28;20409;-80
2021/04/07 04:35:20;;;;;;;;;;;;;;;-142.75;68.98;78720.44;5064546;28;19965;-80
2021/04/07 04:37:46;;;;;;;;;;;;;;;-142.75;69.21;78732.25;5082949;28;19969;-79
2021/04/07 04:40:12;;;;;;;;;;;;;;;-142.75;69.34;78724.38;5094170;28;19965;-79
2021/04/07 04:42:37;;;;;;;;;;;;;;;-142.75;69.30;78732.25;5074526;28;19948;-79
2021/04/07 04:45:03;;;;;;;;;;;;;;;-142.75;69.37;78751.97;5090007;28;19973;-80
2021/04/07 04:47:29;;;;;;;;;;;;;;;-142.75;69.34;78751.97;5073387;28;19920;-81
2021/04/07 04:49:54;;;;;;;;;;;;;;;-142.75;69.52;78748.03;5095627;28;20010;-80
2021/04/07 04:52:20;;;;;;;;;;;;;;;-142.75;69.64;78736.19;5087781;28;19924;-81
2021/04/07 04:54:45;;;;;;;;;;;;;;;-142.75;69.73;78748.03;5078088;28;19920;-81
2021/04/07 04:57:10;;;;;;;;;;;;;;;-142.75;69.97;78751.97;5085626;28;19927;-82
2021/04/07 04:59:35;;;;;;;;;;;;;;;-142.75;69.98;78750.00;5086132;28;19913;-80
2021/04/07 05:02:01;;;;;;;;;;;;;;;-142.75;70.00;78732.25;5066948;28;20472;-81
2021/04/07 05:04:26;;;;;;;;;;;;;;;-142.75;70.16;78720.44;5088478;28;19912;-81
2021/04/07 05:06:51;;;;;;;;;;;;;;;-142.75;70.12;78706.66;5084795;28;19919;-79
2021/04/07 05:09:16;;;;;;;;;;;;;;;-142.75;70.27;78696.81;5060692;28;20328;-81
2021/04/07 05:11:41;;;;;;;;;;;;;;;-142.75;70.21;78681.06;5099756;28;19952;-79
2021/04/07 05:14:06;;;;;;;;;;;;;;;-142.75;70.47;78665.28;5093514;28;19916;-82
2021/04/07 05:16:32;;;;;;;;;;;;;;;-142.75;70.40;78629.84;5063402;28;20364;-79
2021/04/07 05:18:58;;;;;;;;;;;;;;;-142.75;70.69;78621.97;5079607;28;19912;-80
2021/04/07 05:21:23;;;;;;;;;;;;;;;-142.75;70.52;78578.63;5087074;28;19963;-80
2021/04/07 05:23:49;;;;;;;;;;;;;;;-142.75;70.22;78545.16;5082305;28;20023;-80
2021/04/07 05:26:14;;;;;;;;;;;;;;;-142.75;69.99;78531.38;5085856;28;19912;-79
2021/04/07 05:28:42;;;;;;;;;;;;;;;-142.75;69.98;78513.66;5064017;28;19987;-82
2021/04/07 05:31:10;;;;;;;;;;;;;;;-142.75;70.06;78515.63;5083919;28;19916;-80
2021/04/07 05:33:37;;;;;;;;;;;;;;;-142.75;70.27;78511.69;5086764;28;19912;-80
2021/04/07 05:36:04;;;;;;;;;;;;;;;-142.75;70.21;78501.84;5079874;28;19916;-82
2021/04/07 05:38:29;;;;;;;;;;;;;;;-142.75;70.15;78503.81;5086863;28;19939;-80
2021/04/07 05:40:55;;;;;;;;;;;;;;;-142.75;70.25;78493.97;5090166;28;19969;-80
2021/04/07 05:43:21;;;;;;;;;;;;;;;-142.75;70.06;78468.34;5093391;28;19938;-80
2021/04/07 05:45:46;;;;;;;;;;;;;;;-142.75;69.94;78468.34;5090665;28;19920;-80
2021/04/07 05:48:12;;;;;;;;;;;;;;;-142.75;69.87;78446.69;5061221;28;19917;-80
2021/04/07 05:50:41;;;;;;;;;;;;;;;-142.75;69.82;78442.75;5082300;28;19919;-81
2021/04/07 05:53:06;;;;;;;;;;;;;;;-142.75;69.74;78430.94;5079958;28;19947;-79
2021/04/07 05:55:32;;;;;;;;;;;;;;;-142.75;69.71;78444.72;5067782;28;19912;-80
2021/04/07 05:58:03;;;;;;;;;;;;;;;-142.75;69.47;78432.91;5088000;28;20389;-79
2021/04/07 06:00:28;;;;;;;;;;;;;;;-142.75;69.45;78428.97;5083940;28;19918;-79
2021/04/07 06:02:57;;;;;;;;;;;;;;;-142.75;69.53;78419.13;5077913;28;19916;-78
2021/04/07 06:05:23;;;;;;;;;;;;;;;-142.75;69.27;78423.06;5085643;28;19912;-81
2021/04/07 06:07:48;;;;;;;;;;;;;;;-142.75;69.67;78438.81;5065324;28;19919;-80
2021/04/07 06:10:14;;;;;;;;;;;;;;;-142.75;69.59;78442.75;5079122;28;19912;-80
2021/04/07 06:12:39;;;;;;;;;;;;;;;-142.75;69.47;78434.88;5069182;28;19916;-75
2021/04/07 06:15:05;;;;;;;;;;;;;;;-142.75;69.57;78440.78;5078424;28;19935;-80
2021/04/07 06:17:31;;;;;;;;;;;;;;;-142.75;69.46;78415.19;5083721;28;19923;-81
2021/04/07 06:19:56;;;;;;;;;;;;;;;-142.75;69.61;78428.97;5081105;28;19919;-80
2021/04/07 06:22:21;;;;;;;;;;;;;;;-142.75;69.35;78401.38;5093293;28;19975;-79
2021/04/07 06:24:46;;;;;;;;;;;;;;;-142.75;69.26;78415.19;5063871;28;19912;-79
2021/04/07 06:27:11;;;;;;;;;;;;;;;-142.75;69.28;78413.22;5081846;28;19938;-81
2021/04/07 06:29:36;;;;;;;;;;;;;;;-142.75;69.05;78409.28;5088771;28;19912;-78
2021/04/07 06:32:02;;;;;;;;;;;;;;;-142.75;68.98;78403.38;5085319;28;19912;-81
2021/04/07 06:34:27;;;;;;;;;;;;;;;-142.75;68.65;78393.50;5077165;28;19920;-79
2021/04/07 06:36:54;;;;;;;;;;;;;;;-142.75;68.82;78407.31;5085618;28;19921;-79
2021/04/07 06:39:19;;;;;;;;;;;;;;;-142.75;68.51;78391.53;5088351;28;19995;-79
2021/04/07 06:41:44;;;;;;;;;;;;;;;-142.75;68.49;78409.28;5076137;28;19946;-79
2021/04/07 06:44:10;;;;;;;;;;;;;;;-142.75;68.49;78409.28;5087181;28;19917;-80
2021/04/07 06:46:35;;;;;;;;;;;;;;;-142.75;68.37;78399.44;5080135;28;19940;-79
2021/04/07 06:49:01;;;;;;;;;;;;;;;-142.75;68.22;78409.28;5086261;28;19919;-79
2021/04/07 06:51:26;;;;;;;;;;;;;;;-142.75;68.38;78407.31;5098478;28;19912;-79
2021/04/07 06:53:52;;;;;;;;;;;;;;;-142.75;68.00;78403.38;5088873;28;19934;-78
2021/04/07 06:56:17;;;;;;;;;;;;;;;-142.75;67.41;78389.56;5067072;28;19946;-79
2021/04/07 06:58:43;;;;;;;;;;;;;;;-142.75;67.18;78393.50;5084659;28;19917;-78
2021/04/07 07:01:08;;;;;;;;;;;;;;;-142.75;66.84;78373.81;5064410;28;19912;-77
2021/04/07 07:03:33;;;;;;;;;;;;;;;-142.75;66.71;78381.69;5084801;28;19913;-79
2021/04/07 07:05:59;;;;;;;;;;;;;;;-142.75;66.45;78375.78;5088303;28;19916;-81
2021/04/07 07:08:24;;;;;;;;;;;;;;;-142.75;66.53;78367.91;5074188;28;19912;-79
2021/04/07 07:10:51;;;;;;;;;;;;;;;-142.75;66.17;78358.06;5076854;28;19923;-79
2021/04/07 07:13:20;;;;;;;;;;;;;;;-142.75;66.24;78377.75;5095882;28;20373;-78
2021/04/07 07:15:45;;;;;;;;;;;;;;;-142.75;65.80;78369.88;5091946;28;19947;-82
2021/04/07 07:18:18;;;;;;;;;;;;;;;-142.75;66.30;78373.81;5086063;28;19923;-80
2021/04/07 07:20:43;;;;;;;;;;;;;;;-142.75;65.68;78371.84;5093997;28;19912;-80
2021/04/07 07:23:19;;;;;;;;;;;;;;;-142.75;65.45;78369.88;5089316;28;20151;-80
2021/04/07 07:25:52;;;;;;;;;;;;;;;-142.75;65.57;78356.09;5091108;28;19919;-79
2021/04/07 07:28:18;;;;;;;;;;;;;;;-142.75;64.98;78358.06;5093262;28;19912;-80
2021/04/07 07:30:43;;;;;;;;;;;;;;;-142.75;65.03;78377.75;5086276;28;19919;-82
2021/04/07 07:33:15;;;;;;;;;;;;;;;-142.75;65.58;78381.69;5065337;28;19916;-79
2021/04/07 07:35:40;;;;;;;;;;;;;;;-142.75;64.91;78381.69;5065138;28;19962;-83
2021/04/07 07:38:06;;;;;;;;;;;;;;;-142.75;64.64;78377.75;5065809;28;19916;-79
2021/04/07 07:40:31;;;;;;;;;;;;;;;-142.75;64.41;78377.75;5083963;28;19935;-81
2021/04/07 07:42:56;;;;;;;;;;;;;;;-142.75;64.04;78375.78;5085044;28;19920;-80
2021/04/07 07:45:25;;;;;;;;;;;;;;;-142.75;63.77;78389.56;5091202;28;19912;-78
2021/04/07 07:48:05;;;;;;;;;;;;;;;-142.75;63.88;78381.69;5071965;28;19950;-79
2021/04/07 07:50:34;;;;;;;;;;;;;;;-142.75;63.18;78377.75;5081123;28;20353;-79
2021/04/07 07:53:09;;;;;;;;;;;;;;;-142.75;62.77;78360.03;5082864;28;20326;-80
2021/04/07 07:55:37;;;;;;;;;;;;;;;-142.75;62.80;78379.72;5087363;28;19919;-78
2021/04/07 07:58:05;;;;;;;;;;;;;;;-142.75;62.59;78385.63;5087892;28;19917;-83
2021/04/07 08:00:30;;;;;;;;;;;;;;;-142.75;61.71;78360.03;5083586;28;19916;-83
2021/04/07 08:03:04;;;;;;;;;;;;;;;-142.75;62.56;78395.47;5088843;28;19927;-80
2021/04/07 08:05:30;;;;;;;;;;;;;;;-142.75;62.06;78395.47;5086949;28;19939;-81
2021/04/07 08:07:56;;;;;;;;;;;;;;;-142.75;62.78;78403.38;5068624;28;19912;-80
2021/04/07 08:10:22;;;;;;;;;;;;;;;-142.75;62.33;78381.69;5090140;28;19920;-78
2021/04/07 08:12:47;;;;;;;;;;;;;;;-142.75;61.57;78367.91;5071803;28;19958;-80
2021/04/07 08:15:13;;;;;;;;;;;;;;;-142.75;60.64;78342.31;5089974;28;20010;-78
2021/04/07 08:17:38;;;;;;;;;;;;;;;-142.75;60.12;78338.38;5077646;28;19945;-78
2021/04/07 08:20:04;;;;;;;;;;;;;;;-142.75;60.66;78354.13;5086567;28;19919;-78
2021/04/07 08:22:31;;;;;;;;;;;;;;;-142.75;59.67;78348.22;5082277;28;19916;-78
2021/04/07 08:24:57;;;;;;;;;;;;;;;-142.75;59.78;78342.31;5082680;28;20333;-78
2021/04/07 08:27:22;;;;;;;;;;;;;;;-142.75;59.23;78316.72;5077902;28;19927;-82
2021/04/07 08:29:48;;;;;;;;;;;;;;;-142.75;58.70;78271.41;5076782;28;19999;-78
2021/04/07 08:32:17;;;;;;;;;;;;;;;-142.75;58.30;78255.66;5058744;28;19912;-80
2021/04/07 08:34:43;;;;;;;;;;;;;;;-142.75;57.24;78204.47;5086343;28;20377;-77
2021/04/07 08:37:08;;;;;;;;;;;;;;;-142.75;57.71;78198.56;5076606;28;19951;-79
2021/04/07 08:39:41;;;;;;;;;;;;;;;-142.75;57.57;78228.09;5078914;28;19919;-78
2021/04/07 08:42:08;;;;;;;;;;;;;;;-142.75;57.92;78247.78;5081824;28;20300;-79
2021/04/07 08:44:33;;;;;;;;;;;;;;;-142.75;57.20;78249.75;5056548;28;20501;-79
2021/04/07 08:46:59;;;;;;;;;;;;;;;-142.75;57.44;78273.38;5074527;28;19955;-79
2021/04/07 08:49:38;;;;;;;;;;;;;;;-142.75;56.87;78261.56;5081445;28;19924;-79
2021/04/07 08:52:15;;;;;;;;;;;;;;;-142.75;56.62;78251.72;5065781;28;19947;-79
2021/04/07 08:54:47;;;;;;;;;;;;;;;-142.75;56.45;78251.72;5077055;28;19973;-78
2021/04/07 08:57:22;;;;;;;;;;;;;;;-142.75;56.38;78212.34;5062567;28;19916;-78
2021/04/07 08:59:51;;;;;;;;;;;;;;;-142.75;55.38;78186.75;5079789;28;20003;-79
2021/04/07 09:02:16;;;;;;;;;;;;;;;-142.75;55.51;78147.34;5057462;28;19912;-79
2021/04/07 09:04:41;;;;;;;;;;;;;;;-142.75;54.28;78192.66;5072218;28;20596;-80
2021/04/07 09:07:11;;;;;;;;;;;;;;;-142.75;54.65;78186.75;5083701;28;19923;-80
2021/04/07 09:09:36;;;;;;;;;;;;;;;-142.75;54.07;78174.91;5091189;28;19966;-80
2021/04/07 09:12:02;;;;;;;;;;;;;;;-142.75;54.39;78224.16;5061791;28;19923;-79
2021/04/07 09:14:28;;;;;;;;;;;;;;;-142.75;53.91;78243.84;5064211;28;19916;-79
2021/04/07 09:17:00;;;;;;;;;;;;;;;-142.75;54.17;78263.53;5062810;28;19923;-81
2021/04/07 09:19:29;;;;;;;;;;;;;;;-142.75;53.84;78267.47;5061740;28;19916;-80
2021/04/07 09:21:58;;;;;;;;;;;;;;;-142.75;54.21;78249.75;5076181;28;19966;-79
2021/04/07 09:24:27;;;;;;;;;;;;;;;-142.75;54.69;78216.28;5071514;28;19916;-82
2021/04/07 09:26:53;;;;;;;;;;;;;;;-142.75;54.00;78216.28;5084677;28;19920;-79
2021/04/07 09:29:19;;;;;;;;;;;;;;;-142.75;54.23;78230.06;5081559;28;19973;-80
2021/04/07 09:31:45;;;;;;;;;;;;;;;-142.75;54.21;78283.22;5057779;28;19913;-80
2021/04/07 09:34:11;;;;;;;;;;;;;;;-142.75;54.43;78312.78;5079369;28;19942;-80
2021/04/07 09:36:38;;;;;;;;;;;;;;;-142.75;55.10;78334.44;5086190;28;19963;-76
2021/04/07 09:39:11;;;;;;;;;;;;;;;-142.75;54.05;78324.59;5089369;28;19923;-78
2021/04/07 09:41:39;;;;;;;;;;;;;;;-142.75;54.10;78334.44;5085317;28;19912;-79
2021/04/07 09:44:06;;;;;;;;;;;;;;;-142.75;54.54;78322.63;5077818;28;19912;-82
2021/04/07 09:46:31;;;;;;;;;;;;;;;-142.75;52.75;78291.09;5085571;28;19924;-80
2021/04/07 09:48:57;;;;;;;;;;;;;;;-142.75;53.39;78275.34;5078808;28;20430;-78
2021/04/07 09:51:48;;;;;;;;;;;;;;;-142.75;52.56;78271.41;5084113;28;20332;-80
2021/04/07 09:54:21;;;;;;;;;;;;;;;-142.75;52.71;78255.66;5073476;28;19973;-82
2021/04/07 09:56:52;;;;;;;;;;;;;;;-142.75;52.84;78269.44;5075959;28;19916;-80
2021/04/07 09:59:17;;;;;;;;;;;;;;;-142.75;52.20;78239.91;5076028;28;19916;-80
2021/04/07 10:01:43;;;;;;;;;;;;;;;-142.75;51.37;78267.47;5075144;28;20007;-79
2021/04/07 10:04:08;;;;;;;;;;;;;;;-142.75;52.44;78300.97;5080981;28;19913;-80
2021/04/07 10:06:33;;;;;;;;;;;;;;;-142.75;52.62;78312.78;5076032;28;20270;-78
2021/04/07 10:09:09;;;;;;;;;;;;;;;-142.75;53.15;78318.69;5078281;28;19912;-82
2021/04/07 10:11:39;;;;;;;;;;;;;;;-142.75;53.82;78299.00;5089319;28;19919;-80
2021/04/07 10:14:05;;;;;;;;;;;;;;;-142.75;53.54;78293.06;5089183;28;19927;-81
2021/04/07 10:16:34;;;;;;;;;;;;;;;-142.75;56.36;78375.78;5058091;28;19921;-79
2021/04/07 10:19:00;;;;;;;;;;;;;;;-142.75;58.09;78391.53;5077943;28;19912;-81
2021/04/07 10:21:26;;;;;;;;;;;;;;;-142.75;57.94;78383.66;5085335;28;20447;-82
2021/04/07 10:23:53;;;;;;;;;;;;;;;-142.75;58.57;78440.78;5063718;28;19916;-80
2021/04/07 10:26:19;;;;;;;;;;;;;;;-142.75;59.69;78472.28;5065054;28;20003;-81
2021/04/07 10:29:00;;;;;;;;;;;;;;;-142.75;60.44;78466.38;5084053;28;19947;-81
2021/04/07 10:31:26;;;;;;;;;;;;;;;-142.75;60.51;78446.69;5082027;28;20339;-80
2021/04/07 10:34:08;;;;;;;;;;;;;;;-142.75;60.47;78432.91;5079471;28;19944;-82
2021/04/07 10:36:34;;;;;;;;;;;;;;;-142.75;59.36;78430.94;5083005;28;19920;-81
2021/04/07 10:39:10;;;;;;;;;;;;;;;-142.75;58.97;78377.75;5084287;28;19914;-82
2021/04/07 10:41:35;;;;;;;;;;;;;;;-142.75;58.38;78287.16;5089850;28;19929;-80
2021/04/07 10:44:00;;;;;;;;;;;;;;;-142.75;55.88;78184.78;5097151;28;20297;-83
2021/04/07 10:46:30;;;;;;;;;;;;;;;-142.75;51.61;78129.63;5070595;28;19943;-83
2021/04/07 10:48:57;;;;;;;;;;;;;;;-142.75;51.63;77991.78;5083112;28;20041;-84
2021/04/07 10:51:22;;;;;;;;;;;;;;;-142.75;51.24;77999.66;5081857;28;19956;-80
2021/04/07 10:53:54;;;;;;;;;;;;;;;-142.75;51.79;78052.81;5081743;28;20427;-83
2021/04/07 10:56:22;;;;;;;;;;;;;;;-142.75;51.07;77979.97;5078672;28;19978;-82
2021/04/07 10:58:59;;;;;;;;;;;;;;;-142.75;52.22;78117.81;5090149;28;19958;-82
2021/04/07 11:01:29;;;;;;;;;;;;;;;-142.75;53.33;78176.88;5079754;28;19923;-82
2021/04/07 11:03:54;;;;;;;;;;;;;;;-142.75;55.32;78220.22;5080475;28;19920;-83
2021/04/07 11:06:19;;;;;;;;;;;;;;;-142.75;55.46;78255.66;5084412;28;19995;-83
2021/04/07 11:08:46;;;;;;;;;;;;;;;-142.75;55.89;78279.28;5090050;28;20388;-83
2021/04/07 11:11:19;;;;;;;;;;;;;;;-142.75;53.99;78157.19;5065202;28;20274;-80
2021/04/07 11:13:45;;;;;;;;;;;;;;;-142.75;51.75;78096.16;5078723;28;19913;-81
2021/04/07 11:16:11;;;;;;;;;;;;;;;-142.75;50.29;77972.09;5084866;28;19958;-79
2021/04/07 11:18:37;;;;;;;;;;;;;;;-142.75;50.87;78058.72;5077942;28;19912;-81
2021/04/07 11:21:03;;;;;;;;;;;;;;;-142.75;51.66;78125.69;5085261;28;19912;-82
2021/04/07 11:23:28;;;;;;;;;;;;;;;-142.75;51.63;78172.94;5061424;28;20003;-82
2021/04/07 11:25:54;;;;;;;;;;;;;;;-142.75;51.27;78102.06;5083667;28;19916;-79
2021/04/07 11:28:20;;;;;;;;;;;;;;;-142.75;50.88;78184.78;5090868;28;19916;-81
2021/04/07 11:33:50;;;;;;;;;;;;;;;-142.75;50.97;78234.00;5052899;28;19970;-80
2021/04/07 11:39:12;;;;;;;;;;;;;;;-142.75;51.78;78295.06;5077152;28;19918;-81
2021/04/07 11:46:34;;;;;;;;;;;;;;;-142.75;52.11;78234.00;5080009;28;19912;-81
2021/04/07 11:49:00;;;;;;;;;;;;;;;-142.75;51.74;78226.13;5088001;28;19924;-80
2021/04/07 11:51:25;;;;;;;;;;;;;;;-142.75;50.67;78322.63;5074176;28;19918;-81
2021/04/07 11:53:50;;;;;;;;;;;;;;;-142.75;51.47;78362.00;5079867;28;20362;-79
2021/04/07 11:56:16;;;;;;;;;;;;;;;-142.75;51.97;78373.81;5084497;28;19916;-81
2021/04/07 11:58:41;;;;;;;;;;;;;;;-142.75;51.11;78322.63;5084049;28;20373;-81
2021/04/07 12:01:06;;;;;;;;;;;;;;;-142.75;50.29;78318.69;5090042;28;20291;-80
2021/04/07 12:03:32;;;;;;;;;;;;;;;-142.75;50.57;78243.84;5090108;28;19920;-81
2021/04/07 12:05:57;;;;;;;;;;;;;;;-142.75;49.60;78204.47;5089846;28;20037;-79
2021/04/07 12:08:23;;;;;;;;;;;;;;;-142.75;48.76;78204.47;5099707;22;19924;-79
2021/04/07 12:10:48;;;;;;;;;;;;;;;-142.75;48.66;78251.72;5066762;28;19920;-78
2021/04/07 12:13:13;;;;;;;;;;;;;;;-142.75;50.10;78267.47;5073906;28;19913;-78
2021/04/07 12:15:39;;;;;;;;;;;;;;;-142.75;52.16;78291.09;5068592;28;19916;-78
2021/04/07 12:18:06;;;;;;;;;;;;;;;-142.75;51.78;78322.63;5055348;28;20302;-78
2021/04/07 12:20:32;;;;;;;;;;;;;;;-142.75;51.06;78405.34;5063413;28;19916;-77
2021/04/07 12:22:59;;;;;;;;;;;;;;;-142.75;51.48;78436.84;5062154;28;19965;-79
2021/04/07 12:25:25;;;;;;;;;;;;;;;-142.75;50.65;78432.91;5049752;28;19912;-78
2021/04/07 12:27:50;;;;;;;;;;;;;;;-142.75;49.16;78427.00;5044204;28;19912;-78
2021/04/07 12:30:15;;;;;;;;;;;;;;;-142.75;49.31;78387.59;5047027;28;19912;-77
2021/04/07 12:32:40;;;;;;;;;;;;;;;-142.75;48.73;78393.50;5062879;28;19978;-77
2021/04/07 12:35:09;;;;;;;;;;;;;;;-142.75;48.88;78446.69;5047007;28;19940;-77